Time;durP1;ratioP1;P1;durP2;ratioP2;P2;SDS_P1;SDS_P2;PMS_P1;PMS_P2;Temp;Humidity;BMP_temperature;BMP_pressure;BME280_temperature;BME280_humidity;BME280_pressure;Samples;Min_cycle;Max_cycle;Signal;HPM_P1;HPM_P2
2023/09/26 00:00:31;;;;;;;37.33;18.25;;;18.80;83.70;;;;;;4878675;29;20415;-91
2023/09/26 00:02:57;;;;;;;30.77;15.70;;;18.80;83.70;;;;;;4893993;29;20059;-91
2023/09/26 00:05:24;;;;;;;34.10;18.45;;;18.90;83.80;;;;;;4878013;29;20082;-91
2023/09/26 00:07:51;;;;;;;34.22;17.83;;;18.80;83.80;;;;;;4874321;29;20522;-91
2023/09/26 00:10:19;;;;;;;35.55;19.60;;;18.80;83.90;;;;;;4890262;29;20207;-91
2023/09/26 00:12:47;;;;;;;31.00;17.98;;;18.80;83.70;;;;;;4877708;29;20491;-91
2023/09/26 00:15:15;;;;;;;33.13;18.37;;;18.80;83.80;;;;;;4881579;29;20106;-92
2023/09/26 00:17:42;;;;;;;34.90;19.00;;;18.80;83.80;;;;;;4878602;29;20511;-92
2023/09/26 00:20:10;;;;;;;38.78;19.55;;;18.80;83.70;;;;;;4880831;29;20052;-91
2023/09/26 00:22:37;;;;;;;36.78;19.08;;;18.80;83.80;;;;;;4888524;29;20048;-91
2023/09/26 00:25:05;;;;;;;34.90;18.40;;;18.80;83.80;;;;;;4892170;29;20055;-92
2023/09/26 00:27:33;;;;;;;38.43;19.10;;;18.80;83.80;;;;;;4893464;29;20502;-91
2023/09/26 00:30:00;;;;;;;37.83;17.17;;;18.80;83.70;;;;;;4885545;29;20412;-91
2023/09/26 00:32:29;;;;;;;36.67;18.38;;;18.80;83.80;;;;;;4882265;29;20644;-91
2023/09/26 00:34:58;;;;;;;36.97;17.70;;;18.80;83.80;;;;;;4886426;29;20048;-90
2023/09/26 00:37:25;;;;;;;37.35;18.75;;;18.80;83.80;;;;;;4893735;29;20143;-91
2023/09/26 00:39:53;;;;;;;36.13;17.23;;;18.80;83.80;;;;;;4892320;29;20056;-91
2023/09/26 00:42:20;;;;;;;39.45;18.75;;;18.70;84.00;;;;;;4894735;29;20510;-91
2023/09/26 00:44:49;;;;;;;36.83;18.73;;;18.70;83.90;;;;;;4883206;29;20048;-92
2023/09/26 00:47:17;;;;;;;40.67;18.90;;;18.70;83.90;;;;;;4896020;29;20044;-92
2023/09/26 00:49:44;;;;;;;42.45;18.50;;;18.70;84.00;;;;;;4877616;29;20138;-92
2023/09/26 00:52:12;;;;;;;35.67;17.50;;;18.60;84.00;;;;;;4880642;29;20048;-91
2023/09/26 00:54:39;;;;;;;33.72;16.67;;;18.60;84.00;;;;;;4893447;29;20056;-92
2023/09/26 00:57:08;;;;;;;41.10;18.73;;;18.50;84.20;;;;;;4888016;29;20044;-92
2023/09/26 00:59:37;;;;;;;40.40;17.15;;;18.50;84.20;;;;;;4895860;29;20420;-92
2023/09/26 01:02:04;;;;;;;31.35;16.05;;;18.50;84.30;;;;;;4894167;29;20052;-92
2023/09/26 01:04:32;;;;;;;33.97;15.90;;;18.40;84.30;;;;;;4896373;29;20056;-92
2023/09/26 01:06:59;;;;;;;29.38;15.75;;;18.40;84.30;;;;;;4892219;29;20057;-91
2023/09/26 01:09:26;;;;;;;34.78;16.52;;;18.40;84.30;;;;;;4897271;29;20555;-91
2023/09/26 01:11:53;;;;;;;31.05;14.48;;;18.30;84.20;;;;;;4877276;29;20051;-92
2023/09/26 01:14:21;;;;;;;33.03;15.07;;;18.30;84.20;;;;;;4883758;29;20064;-92
2023/09/26 01:16:54;;;;;;;27.60;13.73;;;18.20;84.20;;;;;;4873477;29;20052;-91
2023/09/26 01:19:22;;;;;;;29.20;13.63;;;18.10;84.30;;;;;;4877261;29;20052;-91
2023/09/26 01:21:49;;;;;;;32.40;14.52;;;18.00;84.50;;;;;;4894717;29;20044;-91
2023/09/26 01:24:17;;;;;;;25.75;13.02;;;18.00;84.40;;;;;;4890091;29;20056;-91
2023/09/26 01:26:44;;;;;;;27.80;14.45;;;17.90;84.70;;;;;;4882842;29;20080;-91
2023/09/26 01:29:11;;;;;;;27.37;13.80;;;17.90;84.60;;;;;;4875752;29;20055;-91
2023/09/26 01:31:39;;;;;;;28.48;14.68;;;17.80;84.70;;;;;;4883560;29;20105;-91
2023/09/26 01:34:07;;;;;;;27.23;13.52;;;17.70;84.70;;;;;;4892346;29;20060;-91
2023/09/26 01:36:34;;;;;;;28.00;14.35;;;17.70;84.80;;;;;;4879768;29;20052;-92
2023/09/26 01:39:02;;;;;;;24.30;12.93;;;17.60;84.70;;;;;;4870596;29;20456;-91
2023/09/26 01:41:31;;;;;;;24.53;12.13;;;17.50;84.80;;;;;;4887408;29;20124;-91
2023/09/26 01:43:59;;;;;;;23.98;11.63;;;17.50;84.90;;;;;;4894390;29;20099;-91
2023/09/26 01:46:26;;;;;;;21.88;11.93;;;17.40;84.90;;;;;;4878471;29;20071;-91
2023/09/26 01:48:53;;;;;;;22.75;12.50;;;17.40;85.00;;;;;;4876751;29;20056;-92
2023/09/26 01:51:20;;;;;;;24.77;12.43;;;17.30;85.00;;;;;;4871765;29;20060;-91
2023/09/26 01:53:48;;;;;;;24.67;11.47;;;17.30;85.00;;;;;;4894903;29;20087;-91
2023/09/26 01:56:15;;;;;;;24.30;12.07;;;17.30;85.00;;;;;;4891072;29;20041;-91
2023/09/26 01:58:43;;;;;;;17.88;10.45;;;17.30;85.20;;;;;;4872471;29;20078;-91
2023/09/26 02:01:10;;;;;;;18.60;10.07;;;17.20;85.40;;;;;;4869800;29;20049;-91
2023/09/26 02:03:37;;;;;;;16.90;9.70;;;17.10;85.30;;;;;;4890036;29;20056;-91
2023/09/26 02:06:04;;;;;;;20.03;9.50;;;17.00;85.60;;;;;;4877374;29;20048;-91
2023/09/26 02:08:31;;;;;;;20.35;9.80;;;17.00;85.60;;;;;;4881626;29;20415;-91
2023/09/26 02:10:59;;;;;;;16.35;8.63;;;17.00;85.80;;;;;;4894593;29;20067;-91
2023/09/26 02:13:26;;;;;;;16.83;9.10;;;16.90;85.90;;;;;;4883323;29;20463;-92
2023/09/26 02:15:53;;;;;;;21.13;8.98;;;16.90;86.10;;;;;;4874790;29;20136;-91
2023/09/26 02:18:20;;;;;;;18.53;9.67;;;16.80;86.30;;;;;;4872838;29;20084;-92
2023/09/26 02:20:47;;;;;;;15.70;8.88;;;16.80;86.40;;;;;;4888240;29;20052;-91
2023/09/26 02:23:14;;;;;;;16.60;8.20;;;16.80;86.40;;;;;;4880929;29;20056;-92
2023/09/26 02:25:49;;;;;;;15.82;8.70;;;16.70;86.40;;;;;;4888087;29;20048;-91
2023/09/26 02:28:16;;;;;;;15.45;8.80;;;16.80;86.40;;;;;;4897517;29;20044;-92
2023/09/26 02:30:43;;;;;;;18.70;8.90;;;16.70;86.60;;;;;;4894095;29;20452;-92
2023/09/26 02:33:10;;;;;;;17.00;8.77;;;16.70;86.80;;;;;;4889305;29;20566;-92
2023/09/26 02:35:37;;;;;;;17.80;8.38;;;16.70;86.80;;;;;;4875504;29;20116;-92
2023/09/26 02:38:04;;;;;;;18.55;9.10;;;16.70;86.90;;;;;;4870093;29;20079;-92
2023/09/26 02:40:32;;;;;;;17.55;9.27;;;16.70;86.90;;;;;;4885488;29;20423;-92
2023/09/26 02:42:59;;;;;;;15.97;8.50;;;16.60;87.00;;;;;;4879145;29;20059;-92
2023/09/26 02:45:28;;;;;;;18.23;8.98;;;16.60;87.20;;;;;;4882414;29;20525;-92
2023/09/26 02:47:55;;;;;;;19.17;9.20;;;16.70;87.00;;;;;;4887147;29;20550;-92
2023/09/26 02:50:23;;;;;;;16.80;8.45;;;16.70;86.90;;;;;;4874666;29;20040;-92
2023/09/26 02:52:50;;;;;;;17.95;9.15;;;16.70;87.00;;;;;;4892431;29;20051;-91
2023/09/26 02:55:20;;;;;;;18.80;9.13;;;16.70;86.80;;;;;;4892583;29;20103;-91
2023/09/26 02:57:47;;;;;;;15.13;8.63;;;16.80;86.90;;;;;;4875430;29;20105;-90
2023/09/26 03:00:16;;;;;;;16.33;8.65;;;16.80;86.80;;;;;;4886481;29;20053;-92
2023/09/26 03:02:45;;;;;;;18.95;9.35;;;16.80;86.80;;;;;;4876762;29;20139;-91
2023/09/26 03:05:14;;;;;;;16.00;8.70;;;16.80;86.90;;;;;;4870835;29;20510;-91
2023/09/26 03:07:42;;;;;;;18.00;9.27;;;16.80;86.90;;;;;;4876318;29;20048;-89
2023/09/26 03:10:10;;;;;;;18.05;8.75;;;16.90;86.80;;;;;;4884617;29;20549;-89
2023/09/26 03:12:43;;;;;;;15.35;8.45;;;16.90;86.60;;;;;;4884818;29;20460;-89
2023/09/26 03:15:11;;;;;;;14.25;8.10;;;16.90;86.50;;;;;;4884786;29;20064;-89
2023/09/26 03:17:38;;;;;;;16.45;7.72;;;17.00;86.40;;;;;;4884712;29;20059;-89
2023/09/26 03:20:08;;;;;;;15.47;7.90;;;17.00;86.30;;;;;;4884612;29;20063;-89
2023/09/26 03:22:35;;;;;;;16.13;8.50;;;17.00;86.00;;;;;;4884655;29;20053;-89
2023/09/26 03:25:03;;;;;;;12.45;6.88;;;17.10;86.00;;;;;;4869091;29;20053;-88
2023/09/26 03:27:31;;;;;;;15.00;8.05;;;17.10;85.90;;;;;;4885247;29;20048;-89
2023/09/26 03:29:58;;;;;;;17.98;8.25;;;17.10;85.90;;;;;;4869130;29;20049;-89
2023/09/26 03:32:25;;;;;;;18.17;9.10;;;17.10;85.90;;;;;;4884428;29;20148;-89
2023/09/26 03:34:53;;;;;;;16.33;9.00;;;17.10;86.00;;;;;;4884361;29;20052;-89
2023/09/26 03:37:20;;;;;;;22.50;11.82;;;17.00;86.20;;;;;;4884425;29;20053;-89
2023/09/26 03:39:47;;;;;;;21.08;10.45;;;17.00;86.30;;;;;;4869300;29;20060;-89
2023/09/26 03:42:15;;;;;;;31.73;14.85;;;17.00;86.30;;;;;;4884225;29;20077;-89
2023/09/26 03:44:43;;;;;;;34.30;15.40;;;17.00;86.40;;;;;;4884207;29;20048;-90
2023/09/26 03:47:10;;;;;;;44.20;18.05;;;17.10;86.50;;;;;;4884388;29;20052;-89
2023/09/26 03:49:37;;;;;;;41.35;16.95;;;17.10;86.60;;;;;;4869099;29;20052;-87
2023/09/26 03:52:04;;;;;;;35.03;16.33;;;17.10;86.60;;;;;;4883864;29;20143;-87
2023/09/26 03:54:31;;;;;;;35.20;16.83;;;17.10;86.50;;;;;;4883899;29;20120;-88
2023/09/26 03:56:58;;;;;;;32.77;13.77;;;17.10;86.30;;;;;;4868558;29;20080;-88
2023/09/26 03:59:25;;;;;;;23.60;12.38;;;17.20;86.20;;;;;;4884032;29;20108;-88
2023/09/26 04:01:52;;;;;;;23.65;11.77;;;17.20;85.90;;;;;;4868529;29;20056;-85
2023/09/26 04:04:20;;;;;;;24.17;12.50;;;17.20;85.80;;;;;;4844475;29;1241965;-88
2023/09/26 04:06:47;;;;;;;27.17;14.00;;;17.20;85.70;;;;;;4888549;29;20063;-87
2023/09/26 04:09:14;;;;;;;30.48;15.00;;;17.20;85.80;;;;;;4888108;29;20129;-89
2023/09/26 04:11:41;;;;;;;41.42;18.35;;;17.10;85.90;;;;;;4886969;29;20057;-87
2023/09/26 04:14:08;;;;;;;39.00;17.35;;;17.00;86.20;;;;;;4884728;29;20048;-88
2023/09/26 04:16:35;;;;;;;35.90;18.58;;;17.00;86.40;;;;;;4868433;29;20061;-87
2023/09/26 04:19:02;;;;;;;37.27;18.53;;;17.00;86.30;;;;;;4883879;29;20056;-88
2023/09/26 04:21:29;;;;;;;40.35;19.52;;;17.00;86.40;;;;;;4869283;29;20056;-88
2023/09/26 04:23:59;;;;;;;43.38;20.08;;;17.10;86.10;;;;;;4869201;29;20533;-87
2023/09/26 04:26:27;;;;;;;38.70;19.48;;;17.10;85.90;;;;;;4884294;29;20080;-87
2023/09/26 04:28:54;;;;;;;47.30;20.98;;;17.20;85.70;;;;;;4884169;29;20507;-88
2023/09/26 04:31:21;;;;;;;48.17;20.17;;;17.20;85.60;;;;;;4868870;29;20414;-88
2023/09/26 04:33:48;;;;;;;38.38;18.35;;;17.20;85.70;;;;;;4884292;29;20396;-87
2023/09/26 04:36:16;;;;;;;37.90;19.23;;;17.20;85.80;;;;;;4884195;29;20048;-88
2023/09/26 04:38:45;;;;;;;44.20;20.70;;;17.10;85.80;;;;;;4884123;29;20056;-87
2023/09/26 04:41:13;;;;;;;41.25;18.88;;;17.10;85.80;;;;;;4868722;29;20053;-87
2023/09/26 04:43:40;;;;;;;43.00;17.37;;;17.10;85.90;;;;;;4884114;29;20121;-87
2023/09/26 04:46:16;;;;;;;48.42;21.02;;;17.10;85.80;;;;;;4883817;29;20048;-88
2023/09/26 04:48:44;;;;;;;41.95;19.10;;;17.00;86.10;;;;;;4868789;29;20056;-87
2023/09/26 04:51:13;;;;;;;38.85;17.83;;;17.00;86.20;;;;;;4868429;29;20052;-87
2023/09/26 04:53:41;;;;;;;46.30;20.40;;;17.00;86.10;;;;;;4883978;29;20067;-88
2023/09/26 04:56:08;;;;;;;40.73;19.97;;;17.00;86.30;;;;;;4884078;29;20079;-88
2023/09/26 04:58:36;;;;;;;46.83;20.90;;;16.90;86.60;;;;;;4868480;29;20065;-88
2023/09/26 05:01:16;;;;;;;44.42;20.25;;;16.80;86.70;;;;;;4883800;29;20130;-87
2023/09/26 05:03:44;;;;;;;49.33;20.42;;;16.90;86.80;;;;;;4883357;29;20056;-87
2023/09/26 05:06:12;;;;;;;42.13;19.73;;;16.90;86.60;;;;;;4883816;29;20048;-87
2023/09/26 05:08:40;;;;;;;47.77;19.07;;;16.90;86.60;;;;;;4883744;29;20053;-88
2023/09/26 05:11:13;;;;;;;32.10;13.20;;;17.00;86.40;;;;;;4883674;29;20422;-88
2023/09/26 05:13:42;;;;;;;25.83;11.07;;;17.00;86.30;;;;;;4883681;29;20060;-87
2023/09/26 05:16:10;;;;;;;18.60;8.75;;;17.00;86.30;;;;;;4867980;29;20059;-87
2023/09/26 05:18:37;;;;;;;20.10;9.00;;;17.00;86.10;;;;;;4883406;29;20052;-87
2023/09/26 05:21:08;;;;;;;17.40;8.50;;;17.00;85.90;;;;;;4883505;29;20052;-87
2023/09/26 05:23:35;;;;;;;19.70;8.50;;;17.00;85.80;;;;;;4883280;29;20396;-87
2023/09/26 05:26:05;;;;;;;20.58;9.07;;;17.00;85.70;;;;;;4867872;29;20063;-87
2023/09/26 05:28:32;;;;;;;19.33;7.97;;;17.00;85.70;;;;;;4882742;29;20104;-90
2023/09/26 05:30:59;;;;;;;18.92;8.38;;;17.00;85.80;;;;;;4868256;29;20053;-86
2023/09/26 05:33:27;;;;;;;20.40;8.67;;;17.00;85.90;;;;;;4883493;29;20055;-87
2023/09/26 05:35:57;;;;;;;16.48;8.13;;;16.90;85.90;;;;;;4867948;29;20128;-90
2023/09/26 05:38:25;;;;;;;19.58;8.75;;;17.00;86.00;;;;;;4868257;29;20061;-89
2023/09/26 05:40:52;;;;;;;18.38;8.05;;;17.00;85.70;;;;;;4883192;29;20060;-88
2023/09/26 05:43:20;;;;;;;17.13;8.35;;;17.00;85.70;;;;;;4883350;29;20514;-88
2023/09/26 05:45:51;;;;;;;17.77;8.87;;;17.00;85.80;;;;;;4882896;29;20095;-87
2023/09/26 05:48:21;;;;;;;19.30;8.13;;;17.00;85.70;;;;;;4867872;29;20049;-88
2023/09/26 05:50:48;;;;;;;17.90;7.32;;;17.00;85.70;;;;;;4867946;29;20519;-87
2023/09/26 05:53:17;;;;;;;14.50;8.02;;;17.00;85.70;;;;;;4867686;29;20061;-87
2023/09/26 05:55:44;;;;;;;16.75;7.43;;;17.00;85.60;;;;;;4882932;29;20151;-88
2023/09/26 05:58:11;;;;;;;13.90;7.10;;;17.00;85.40;;;;;;4882756;29;20495;-88
2023/09/26 06:00:39;;;;;;;15.38;6.47;;;17.10;85.20;;;;;;4867706;29;20056;-87
2023/09/26 06:03:06;;;;;;;17.02;7.85;;;17.10;85.00;;;;;;4882625;29;20057;-88
2023/09/26 06:05:38;;;;;;;15.00;7.40;;;17.10;85.00;;;;;;4867289;29;20049;-88
2023/09/26 06:08:05;;;;;;;14.50;7.20;;;17.10;85.00;;;;;;4883033;29;20048;-88
2023/09/26 06:10:32;;;;;;;14.20;7.27;;;17.10;85.00;;;;;;4867594;29;20549;-87
2023/09/26 06:13:00;;;;;;;16.58;7.03;;;17.10;85.00;;;;;;4867373;29;20061;-88
2023/09/26 06:15:27;;;;;;;15.55;7.88;;;17.10;85.00;;;;;;4867236;29;20067;-88
2023/09/26 06:18:01;;;;;;;13.48;6.40;;;17.20;84.90;;;;;;4882788;29;20088;-88
2023/09/26 06:20:29;;;;;;;13.77;6.50;;;17.20;84.80;;;;;;4882564;29;20119;-88
2023/09/26 06:22:57;;;;;;;12.67;6.83;;;17.20;84.70;;;;;;4882808;29;20084;-88
2023/09/26 06:25:24;;;;;;;13.18;6.32;;;17.30;84.90;;;;;;4867184;29;20510;-88
2023/09/26 06:27:55;;;;;;;13.30;6.95;;;17.40;84.80;;;;;;4867376;29;20076;-88
2023/09/26 06:30:23;;;;;;;14.65;5.88;;;17.50;84.70;;;;;;4866895;29;20525;-88
2023/09/26 06:32:50;;;;;;;10.90;6.03;;;17.50;84.40;;;;;;4882224;29;20056;-88
2023/09/26 06:35:17;;;;;;;11.70;5.40;;;17.70;84.10;;;;;;4882374;29;20060;-88
2023/09/26 06:37:44;;;;;;;10.27;4.95;;;17.80;83.90;;;;;;4882317;29;20419;-87
2023/09/26 06:40:11;;;;;;;10.93;4.88;;;17.90;83.40;;;;;;4866038;29;20519;-88
2023/09/26 06:42:38;;;;;;;9.15;4.90;;;18.00;83.00;;;;;;4866829;29;20052;-87
2023/09/26 06:45:07;;;;;;;8.10;4.30;;;18.00;82.80;;;;;;4867087;29;20053;-88
2023/09/26 06:47:34;;;;;;;9.63;4.60;;;18.10;82.60;;;;;;4882411;29;20063;-88
2023/09/26 06:50:02;;;;;;;10.32;4.47;;;18.20;82.20;;;;;;4866970;29;20088;-88
2023/09/26 06:52:31;;;;;;;12.30;4.10;;;18.20;82.60;;;;;;4866795;29;20056;-88
2023/09/26 06:54:58;;;;;;;8.48;3.95;;;18.30;82.20;;;;;;4882054;29;20053;-88
2023/09/26 06:57:26;;;;;;;12.25;4.60;;;18.40;82.10;;;;;;4882007;29;20135;-89
2023/09/26 06:59:55;;;;;;;10.13;4.40;;;18.50;81.70;;;;;;4867057;29;20052;-88
2023/09/26 07:02:24;;;;;;;11.40;5.22;;;18.50;81.70;;;;;;4882063;29;20156;-88
2023/09/26 07:04:54;;;;;;;13.27;5.38;;;18.60;81.60;;;;;;4882050;29;20055;-88
2023/09/26 07:07:23;;;;;;;9.65;5.03;;;18.60;82.00;;;;;;4867087;29;20063;-88
2023/09/26 07:09:50;;;;;;;13.95;6.00;;;18.70;82.00;;;;;;4866728;29;20582;-88
2023/09/26 07:12:17;;;;;;;13.07;6.57;;;18.70;82.30;;;;;;4881585;29;20113;-88
2023/09/26 07:14:44;;;;;;;11.57;6.03;;;18.70;82.40;;;;;;4866711;29;20051;-88
2023/09/26 07:17:12;;;;;;;15.65;7.10;;;18.60;82.10;;;;;;4866678;29;20532;-88
2023/09/26 07:19:39;;;;;;;13.85;6.30;;;18.60;82.30;;;;;;4866714;29;20471;-88
2023/09/26 07:22:06;;;;;;;13.88;5.95;;;18.60;82.40;;;;;;4866525;29;20057;-88
2023/09/26 07:24:33;;;;;;;13.23;6.20;;;18.50;82.20;;;;;;4881954;29;20471;-88
2023/09/26 07:27:19;;;;;;;13.85;6.47;;;18.50;82.30;;;;;;4881704;29;20532;-88
2023/09/26 07:29:47;;;;;;;14.38;6.68;;;18.40;82.90;;;;;;4881843;29;20056;-88
2023/09/26 07:32:15;;;;;;;12.80;6.28;;;18.40;82.40;;;;;;4866467;29;20088;-88
2023/09/26 07:34:42;;;;;;;12.90;6.13;;;18.30;82.60;;;;;;4881852;29;20075;-88
2023/09/26 07:37:11;;;;;;;11.50;5.80;;;18.40;82.80;;;;;;4881867;29;20419;-88
2023/09/26 07:39:40;;;;;;;11.80;5.68;;;18.40;82.60;;;;;;4881764;29;20052;-88
2023/09/26 07:42:07;;;;;;;14.85;6.07;;;18.50;82.90;;;;;;4866328;29;20104;-88
2023/09/26 07:44:34;;;;;;;11.38;5.40;;;18.50;82.90;;;;;;4866368;29;20060;-88
2023/09/26 07:47:02;;;;;;;10.75;5.35;;;18.70;83.10;;;;;;4881653;29;20414;-88
2023/09/26 07:49:29;;;;;;;12.13;5.60;;;18.80;83.10;;;;;;4866297;29;20056;-88
2023/09/26 07:51:56;;;;;;;11.35;5.57;;;18.80;82.90;;;;;;4867556;29;20056;-88
2023/09/26 07:54:23;;;;;;;11.93;6.00;;;19.00;82.60;;;;;;4885096;29;20056;-88
2023/09/26 07:56:50;;;;;;;12.63;5.65;;;19.00;83.00;;;;;;4869865;29;20064;-88
2023/09/26 07:59:18;;;;;;;11.32;5.95;;;19.00;82.50;;;;;;4869584;29;20061;-88
2023/09/26 08:01:45;;;;;;;10.83;5.23;;;19.00;82.40;;;;;;4869801;29;20103;-88
2023/09/26 08:04:12;;;;;;;16.35;5.53;;;19.00;82.70;;;;;;4869637;29;20064;-88
2023/09/26 08:06:39;;;;;;;12.45;5.50;;;19.10;82.70;;;;;;4869381;29;20048;-88
2023/09/26 08:09:06;;;;;;;11.35;5.88;;;19.10;82.40;;;;;;4884856;29;20052;-88
2023/09/26 08:11:34;;;;;;;11.15;4.80;;;19.20;82.60;;;;;;4869444;29;20060;-88
2023/09/26 08:14:01;;;;;;;10.23;5.50;;;19.40;82.50;;;;;;4885052;29;20060;-87
2023/09/26 08:16:28;;;;;;;11.55;5.03;;;19.50;82.20;;;;;;4884719;29;20068;-88
2023/09/26 08:18:55;;;;;;;9.50;5.35;;;19.50;81.80;;;;;;4884595;29;20066;-88
2023/09/26 08:21:24;;;;;;;12.23;5.45;;;19.60;81.40;;;;;;4884678;29;20099;-88
2023/09/26 08:23:51;;;;;;;9.40;4.80;;;19.60;81.50;;;;;;4869261;29;20052;-88
2023/09/26 08:26:19;;;;;;;8.70;4.63;;;19.60;82.10;;;;;;4884440;29;20048;-88
2023/09/26 08:28:46;;;;;;;12.50;5.05;;;19.70;82.00;;;;;;4884733;29;20147;-88
2023/09/26 08:31:15;;;;;;;10.88;5.07;;;19.80;82.00;;;;;;4884263;29;20586;-88
2023/09/26 08:33:43;;;;;;;10.65;4.40;;;20.00;82.70;;;;;;4884445;29;20052;-88
2023/09/26 08:36:15;;;;;;;9.52;4.25;;;20.10;81.50;;;;;;4884195;29;20064;-88
2023/09/26 08:38:44;;;;;;;10.07;4.83;;;20.10;81.00;;;;;;4884267;29;20230;-88
2023/09/26 08:41:11;;;;;;;8.25;4.90;;;20.20;81.00;;;;;;4868818;29;20471;-88
2023/09/26 08:43:39;;;;;;;10.45;5.45;;;20.20;81.50;;;;;;4884215;29;20052;-88
2023/09/26 08:46:06;;;;;;;11.00;4.88;;;20.30;81.10;;;;;;4868923;29;20061;-88
2023/09/26 08:48:35;;;;;;;11.80;5.15;;;20.30;81.10;;;;;;4868701;29;20056;-88
2023/09/26 08:51:05;;;;;;;11.37;6.50;;;20.40;81.10;;;;;;4884133;29;20048;-89
2023/09/26 08:53:32;;;;;;;15.57;7.57;;;20.40;81.20;;;;;;4883863;29;20099;-88
2023/09/26 08:56:00;;;;;;;12.43;6.18;;;20.40;81.20;;;;;;4868727;29;20063;-88
2023/09/26 08:58:30;;;;;;;12.43;6.88;;;20.50;80.80;;;;;;4883874;29;20052;-88
2023/09/26 09:00:57;;;;;;;13.60;7.53;;;20.60;81.00;;;;;;4884116;29;20062;-88
2023/09/26 09:03:24;;;;;;;13.10;6.60;;;20.60;80.90;;;;;;4882943;29;20550;-88
2023/09/26 09:05:51;;;;;;;11.63;6.75;;;20.70;80.50;;;;;;4868182;29;20104;-88
2023/09/26 09:08:21;;;;;;;12.00;6.13;;;20.70;79.50;;;;;;4883953;29;20063;-88
2023/09/26 09:10:51;;;;;;;16.00;7.50;;;20.80;80.40;;;;;;4868557;29;20055;-88
2023/09/26 09:13:37;;;;;;;13.38;7.32;;;20.90;80.20;;;;;;4883672;29;20087;-89
2023/09/26 09:16:10;;;;;;;13.00;7.10;;;21.00;80.50;;;;;;4883726;29;20151;-88
2023/09/26 09:18:41;;;;;;;15.70;8.05;;;21.00;79.60;;;;;;4883673;29;20058;-88
2023/09/26 09:21:22;;;;;;;15.20;7.53;;;21.10;79.80;;;;;;4868258;29;20067;-88
2023/09/26 09:23:51;;;;;;;15.25;8.15;;;21.10;80.50;;;;;;4868204;29;20070;-88
2023/09/26 09:26:20;;;;;;;19.10;8.52;;;21.30;79.70;;;;;;4868133;29;20052;-88
2023/09/26 09:28:49;;;;;;;13.97;8.47;;;21.30;79.00;;;;;;4883321;29;20052;-88
2023/09/26 09:31:17;;;;;;;14.70;8.20;;;21.30;79.30;;;;;;4883569;29;20502;-88
2023/09/26 09:33:49;;;;;;;16.50;9.35;;;21.30;79.20;;;;;;4867830;29;20092;-88
2023/09/26 09:36:16;;;;;;;18.00;9.48;;;21.50;80.00;;;;;;4883360;29;20075;-88
2023/09/26 09:38:43;;;;;;;21.02;10.68;;;21.50;79.80;;;;;;4883344;29;20519;-88
2023/09/26 09:41:10;;;;;;;23.77;12.10;;;21.60;79.20;;;;;;4883255;29;20148;-88
2023/09/26 09:43:40;;;;;;;19.63;11.63;;;21.60;79.20;;;;;;4883248;29;20060;-88
2023/09/26 09:46:10;;;;;;;24.40;12.35;;;21.60;79.10;;;;;;4883454;29;20442;-87
2023/09/26 09:48:42;;;;;;;21.60;11.13;;;21.70;79.10;;;;;;4883368;29;20510;-88
2023/09/26 09:51:13;;;;;;;26.38;12.95;;;21.70;79.30;;;;;;4882835;29;20529;-88
2023/09/26 09:53:42;;;;;;;19.63;11.63;;;21.70;79.50;;;;;;4867699;29;20076;-88
2023/09/26 09:56:18;;;;;;;22.05;11.80;;;21.70;79.10;;;;;;4867653;29;20060;-88
2023/09/26 09:58:49;;;;;;;19.17;10.55;;;21.80;79.10;;;;;;4867491;29;20095;-88
2023/09/26 10:01:19;;;;;;;17.77;9.85;;;21.80;78.80;;;;;;4867502;29;20056;-87
2023/09/26 10:03:51;;;;;;;19.05;8.73;;;21.90;78.50;;;;;;4867683;29;20048;-88
2023/09/26 10:06:20;;;;;;;16.77;8.90;;;22.00;78.40;;;;;;4867373;29;20396;-88
2023/09/26 10:08:49;;;;;;;16.08;8.20;;;22.00;77.60;;;;;;4867411;29;20045;-88
2023/09/26 10:11:18;;;;;;;15.18;8.48;;;22.10;77.30;;;;;;4882768;29;20057;-88
2023/09/26 10:13:47;;;;;;;14.30;7.82;;;22.10;78.70;;;;;;4867115;29;20053;-88
2023/09/26 10:16:17;;;;;;;15.32;8.60;;;22.30;77.70;;;;;;4882332;29;20129;-88
2023/09/26 10:18:47;;;;;;;15.77;7.90;;;22.40;77.50;;;;;;4882510;29;20148;-88
2023/09/26 10:21:25;;;;;;;16.08;8.13;;;22.40;76.80;;;;;;4867295;29;20148;-88
2023/09/26 10:24:13;;;;;;;16.30;8.48;;;22.50;76.30;;;;;;4882459;29;20472;-88
2023/09/26 10:26:44;;;;;;;13.48;7.70;;;22.50;77.10;;;;;;4867065;29;20524;-88
2023/09/26 10:29:28;;;;;;;14.20;8.07;;;22.60;76.50;;;;;;4882417;29;20055;-88
2023/09/26 10:32:04;;;;;;;15.73;7.60;;;22.70;76.10;;;;;;4882209;29;20049;-87
2023/09/26 10:34:37;;;;;;;12.95;7.65;;;22.70;75.00;;;;;;4867096;29;20049;-88
2023/09/26 10:37:08;;;;;;;13.25;8.38;;;22.80;76.70;;;;;;4867075;29;20400;-88
2023/09/26 10:39:37;;;;;;;14.93;8.60;;;22.80;76.60;;;;;;4866894;29;20053;-88
2023/09/26 10:42:18;;;;;;;15.02;7.95;;;22.90;75.30;;;;;;4882085;29;20087;-88
2023/09/26 10:45:06;;;;;;;12.90;7.60;;;22.90;74.90;;;;;;4869575;29;20056;-87
2023/09/26 10:47:36;;;;;;;13.30;8.48;;;23.00;75.20;;;;;;4881960;29;20048;-88
2023/09/26 10:50:09;;;;;;;15.32;8.55;;;23.10;75.90;;;;;;4882259;29;20459;-88
2023/09/26 10:52:36;;;;;;;14.23;7.97;;;23.10;75.40;;;;;;4882009;29;20084;-88
2023/09/26 10:55:04;;;;;;;14.48;8.20;;;23.20;74.70;;;;;;4866728;29;20053;-88
2023/09/26 10:57:32;;;;;;;16.43;8.37;;;23.20;74.50;;;;;;4882128;29;20056;-88
2023/09/26 11:00:06;;;;;;;13.70;8.75;;;23.30;74.50;;;;;;4866846;29;20063;-89
2023/09/26 11:02:33;;;;;;;13.95;7.70;;;23.40;73.30;;;;;;4866947;29;20057;-88
2023/09/26 11:05:06;;;;;;;12.70;7.68;;;23.40;72.80;;;;;;4882003;29;20064;-89
2023/09/26 11:07:35;;;;;;;13.27;8.13;;;23.40;73.90;;;;;;4867026;29;20056;-88
2023/09/26 11:10:06;;;;;;;13.03;7.80;;;23.50;73.80;;;;;;4866546;29;20053;-90
2023/09/26 11:12:35;;;;;;;13.73;8.43;;;23.60;73.20;;;;;;4873460;29;20056;-90
2023/09/26 11:15:03;;;;;;;17.60;8.32;;;23.60;72.00;;;;;;4875709;29;20052;-90
2023/09/26 11:17:32;;;;;;;12.75;8.55;;;23.70;72.60;;;;;;4890783;29;20052;-90
2023/09/26 11:19:59;;;;;;;13.80;8.45;;;23.90;73.10;;;;;;4888832;29;20436;-91
2023/09/26 11:22:27;;;;;;;12.47;8.40;;;24.00;73.20;;;;;;4893194;29;20410;-91
2023/09/26 11:25:07;;;;;;;13.50;8.75;;;24.10;72.70;;;;;;4891042;29;20063;-90
2023/09/26 11:27:43;;;;;;;13.82;8.45;;;24.10;71.50;;;;;;4893571;29;20059;-91
2023/09/26 11:30:20;;;;;;;11.23;7.75;;;24.10;71.70;;;;;;4888766;29;20052;-90
2023/09/26 11:32:50;;;;;;;13.00;8.10;;;24.20;71.70;;;;;;4872385;29;20044;-91
2023/09/26 11:35:19;;;;;;;15.60;8.47;;;24.30;72.30;;;;;;4881069;29;20131;-89
2023/09/26 11:37:53;;;;;;;12.23;8.20;;;24.30;71.50;;;;;;4883449;29;20521;-90
2023/09/26 11:40:22;;;;;;;13.27;7.68;;;24.40;70.90;;;;;;4874247;29;20079;-89
2023/09/26 11:42:51;;;;;;;13.30;7.63;;;24.50;70.80;;;;;;4883147;29;20534;-90
2023/09/26 11:45:23;;;;;;;14.57;7.45;;;24.50;71.40;;;;;;4890949;29;20053;-89
2023/09/26 11:47:53;;;;;;;13.63;7.27;;;24.60;71.30;;;;;;4874065;29;20096;-89
2023/09/26 11:50:22;;;;;;;11.88;6.95;;;24.60;71.30;;;;;;4880368;29;20076;-89
2023/09/26 11:52:50;;;;;;;13.32;7.50;;;24.70;69.70;;;;;;4876405;29;20055;-90
2023/09/26 11:55:18;;;;;;;14.65;7.03;;;24.80;69.60;;;;;;4891240;29;20052;-90
2023/09/26 11:57:48;;;;;;;11.10;6.78;;;24.70;68.20;;;;;;4872042;29;20053;-90
2023/09/26 12:00:16;;;;;;;12.00;6.13;;;24.70;69.30;;;;;;4889049;29;20526;-90
2023/09/26 12:02:50;;;;;;;14.85;6.30;;;24.80;68.10;;;;;;4877897;29;20566;-90
2023/09/26 12:05:26;;;;;;;10.23;6.10;;;24.90;66.10;;;;;;4876703;29;20056;-90
2023/09/26 12:07:53;;;;;;;17.65;7.22;;;24.90;66.80;;;;;;4876413;29;20386;-90
2023/09/26 12:10:22;;;;;;;12.85;6.38;;;24.90;67.80;;;;;;4879364;29;20087;-90
2023/09/26 12:12:49;;;;;;;10.13;6.20;;;24.90;67.80;;;;;;4880815;29;20084;-90
2023/09/26 12:15:23;;;;;;;10.73;6.03;;;25.10;67.50;;;;;;4884334;29;20060;-90
2023/09/26 12:17:53;;;;;;;10.90;6.45;;;25.10;67.40;;;;;;4891753;29;20080;-90
2023/09/26 12:20:21;;;;;;;13.43;7.18;;;25.20;67.70;;;;;;4879229;29;20522;-90
2023/09/26 12:22:50;;;;;;;13.07;6.70;;;25.20;69.00;;;;;;4878654;29;20068;-90
2023/09/26 12:25:19;;;;;;;12.80;6.73;;;25.30;67.10;;;;;;4895006;29;20107;-89
2023/09/26 12:27:47;;;;;;;10.80;6.47;;;25.30;66.80;;;;;;4890448;29;20063;-90
2023/09/26 12:30:14;;;;;;;11.18;6.50;;;25.30;66.30;;;;;;4894852;29;20221;-90
2023/09/26 12:32:41;;;;;;;13.30;7.15;;;25.40;67.20;;;;;;4876828;29;20052;-90
2023/09/26 12:35:10;;;;;;;13.38;6.65;;;25.50;66.90;;;;;;4878090;29;20087;-90
2023/09/26 12:37:37;;;;;;;12.03;6.57;;;25.50;67.40;;;;;;4875889;29;20056;-90
2023/09/26 12:40:14;;;;;;;15.45;7.68;;;25.50;66.70;;;;;;4889609;29;20060;-90